sensor_id;sensor_type;location;lat;lon;timestamp;pressure;altitude;pressure_sealevel;temperature;humidity
79374;BME280;68844;53.128;17.958;2023-06-04T00:02:19;101750.42;;;6.99;61.49
79374;BME280;68844;53.128;17.958;2023-06-04T00:04:46;101751.55;;;6.96;62.22
79374;BME280;68844;53.128;17.958;2023-06-04T00:07:12;101749.35;;;6.93;62.06
79374;BME280;68844;53.128;17.958;2023-06-04T00:09:39;101741.00;;;6.91;62.41
79374;BME280;68844;53.128;17.958;2023-06-04T00:12:07;101748.30;;;6.86;62.01
79374;BME280;68844;53.128;17.958;2023-06-04T00:14:34;101743.38;;;6.80;62.83
79374;BME280;68844;53.128;17.958;2023-06-04T00:17:00;101745.21;;;6.76;61.96
79374;BME280;68844;53.128;17.958;2023-06-04T00:19:27;101739.91;;;6.71;62.19
79374;BME280;68844;53.128;17.958;2023-06-04T00:21:54;101739.75;;;6.71;61.92
79374;BME280;68844;53.128;17.958;2023-06-04T00:24:21;101736.27;;;6.71;62.75
79374;BME280;68844;53.128;17.958;2023-06-04T00:26:48;101735.77;;;6.69;63.38
79374;BME280;68844;53.128;17.958;2023-06-04T00:29:15;101733.95;;;6.65;64.01
79374;BME280;68844;53.128;17.958;2023-06-04T00:31:42;101732.44;;;6.62;63.80
79374;BME280;68844;53.128;17.958;2023-06-04T00:34:10;101736.54;;;6.60;63.47
79374;BME280;68844;53.128;17.958;2023-06-04T00:36:37;101729.23;;;6.57;63.03
79374;BME280;68844;53.128;17.958;2023-06-04T00:39:04;101731.45;;;6.53;63.42
79374;BME280;68844;53.128;17.958;2023-06-04T00:41:31;101728.22;;;6.49;63.84
79374;BME280;68844;53.128;17.958;2023-06-04T00:43:58;101721.44;;;6.48;63.26
79374;BME280;68844;53.128;17.958;2023-06-04T00:46:28;101721.09;;;6.48;63.94
79374;BME280;68844;53.128;17.958;2023-06-04T00:48:55;101722.52;;;6.46;64.69
79374;BME280;68844;53.128;17.958;2023-06-04T00:51:22;101718.70;;;6.45;65.19
79374;BME280;68844;53.128;17.958;2023-06-04T00:53:50;101718.03;;;6.44;64.79
79374;BME280;68844;53.128;17.958;2023-06-04T00:56:18;101721.61;;;6.40;66.16
79374;BME280;68844;53.128;17.958;2023-06-04T00:58:46;101722.27;;;6.35;64.75
79374;BME280;68844;53.128;17.958;2023-06-04T01:01:33;101722.18;;;6.31;66.21
79374;BME280;68844;53.128;17.958;2023-06-04T01:04:04;101718.48;;;6.25;66.58
79374;BME280;68844;53.128;17.958;2023-06-04T01:06:39;101717.73;;;6.19;66.99
79374;BME280;68844;53.128;17.958;2023-06-04T01:09:07;101717.35;;;6.14;65.95
79374;BME280;68844;53.128;17.958;2023-06-04T01:11:36;101716.48;;;6.14;65.03
79374;BME280;68844;53.128;17.958;2023-06-04T01:14:04;101715.61;;;6.13;65.82
79374;BME280;68844;53.128;17.958;2023-06-04T01:16:39;101715.30;;;6.11;66.04
79374;BME280;68844;53.128;17.958;2023-06-04T01:25:02;101722.02;;;6.00;65.83
79374;BME280;68844;53.128;17.958;2023-06-04T01:27:31;101720.73;;;5.96;65.57
79374;BME280;68844;53.128;17.958;2023-06-04T01:29:59;101724.59;;;5.96;65.34
79374;BME280;68844;53.128;17.958;2023-06-04T01:32:27;101721.30;;;5.94;66.19
79374;BME280;68844;53.128;17.958;2023-06-04T01:34:54;101723.98;;;5.91;66.32
79374;BME280;68844;53.128;17.958;2023-06-04T01:37:21;101725.27;;;5.88;67.13
79374;BME280;68844;53.128;17.958;2023-06-04T01:39:48;101720.77;;;5.85;66.49
79374;BME280;68844;53.128;17.958;2023-06-04T01:42:15;101723.79;;;5.83;66.71
79374;BME280;68844;53.128;17.958;2023-06-04T01:44:42;101723.88;;;5.79;66.75
79374;BME280;68844;53.128;17.958;2023-06-04T01:47:09;101725.19;;;5.75;65.83
79374;BME280;68844;53.128;17.958;2023-06-04T01:49:36;101727.85;;;5.73;65.89
79374;BME280;68844;53.128;17.958;2023-06-04T01:52:05;101729.98;;;5.71;66.41
79374;BME280;68844;53.128;17.958;2023-06-04T01:54:32;101726.91;;;5.68;67.41
79374;BME280;68844;53.128;17.958;2023-06-04T01:57:00;101724.36;;;5.64;67.29
79374;BME280;68844;53.128;17.958;2023-06-04T01:59:27;101724.94;;;5.62;67.94
79374;BME280;68844;53.128;17.958;2023-06-04T02:01:54;101721.66;;;5.59;67.58
79374;BME280;68844;53.128;17.958;2023-06-04T02:04:21;101725.55;;;5.57;66.81
79374;BME280;68844;53.128;17.958;2023-06-04T02:06:47;101726.68;;;5.53;65.95
79374;BME280;68844;53.128;17.958;2023-06-04T02:09:15;101723.42;;;5.50;66.90
79374;BME280;68844;53.128;17.958;2023-06-04T02:11:42;101725.92;;;5.48;67.80
79374;BME280;68844;53.128;17.958;2023-06-04T02:14:09;101731.36;;;5.47;68.11
79374;BME280;68844;53.128;17.958;2023-06-04T02:16:36;101728.59;;;5.45;68.69
79374;BME280;68844;53.128;17.958;2023-06-04T02:19:04;101724.83;;;5.41;68.34
79374;BME280;68844;53.128;17.958;2023-06-04T02:21:31;101722.94;;;5.39;68.56
79374;BME280;68844;53.128;17.958;2023-06-04T02:23:58;101722.30;;;5.37;68.28
79374;BME280;68844;53.128;17.958;2023-06-04T02:26:25;101726.20;;;5.34;69.29
79374;BME280;68844;53.128;17.958;2023-06-04T02:28:52;101724.73;;;5.30;68.42
79374;BME280;68844;53.128;17.958;2023-06-04T02:31:18;101724.66;;;5.32;67.77
79374;BME280;68844;53.128;17.958;2023-06-04T02:33:45;101723.77;;;5.33;68.01
79374;BME280;68844;53.128;17.958;2023-06-04T02:36:12;101728.67;;;5.33;68.06
79374;BME280;68844;53.128;17.958;2023-06-04T02:38:39;101729.71;;;5.33;68.83
79374;BME280;68844;53.128;17.958;2023-06-04T02:41:06;101727.09;;;5.33;68.27
79374;BME280;68844;53.128;17.958;2023-06-04T02:43:33;101727.26;;;5.33;68.37
79374;BME280;68844;53.128;17.958;2023-06-04T02:46:00;101733.02;;;5.34;69.41
79374;BME280;68844;53.128;17.958;2023-06-04T02:48:27;101730.77;;;5.32;68.54
79374;BME280;68844;53.128;17.958;2023-06-04T02:50:53;101732.73;;;5.39;68.07
79374;BME280;68844;53.128;17.958;2023-06-04T02:53:20;101730.73;;;5.44;68.67
79374;BME280;68844;53.128;17.958;2023-06-04T02:55:48;101731.89;;;5.45;68.81
79374;BME280;68844;53.128;17.958;2023-06-04T02:58:16;101726.08;;;5.48;68.41
79374;BME280;68844;53.128;17.958;2023-06-04T03:00:43;101722.89;;;5.51;69.15
79374;BME280;68844;53.128;17.958;2023-06-04T03:03:10;101725.83;;;5.52;69.77
79374;BME280;68844;53.128;17.958;2023-06-04T03:05:37;101721.25;;;5.54;69.45
79374;BME280;68844;53.128;17.958;2023-06-04T03:08:06;101714.73;;;5.57;68.76
79374;BME280;68844;53.128;17.958;2023-06-04T03:10:33;101714.80;;;5.62;69.02
79374;BME280;68844;53.128;17.958;2023-06-04T03:13:00;101714.27;;;5.70;69.00
79374;BME280;68844;53.128;17.958;2023-06-04T03:15:27;101716.40;;;5.77;68.97
79374;BME280;68844;53.128;17.958;2023-06-04T03:17:54;101714.17;;;5.83;69.17
79374;BME280;68844;53.128;17.958;2023-06-04T03:20:21;101721.03;;;5.90;69.28
79374;BME280;68844;53.128;17.958;2023-06-04T03:22:51;101722.80;;;5.97;69.37
79374;BME280;68844;53.128;17.958;2023-06-04T03:25:18;101727.18;;;6.04;68.82
79374;BME280;68844;53.128;17.958;2023-06-04T03:27:44;101728.56;;;6.13;68.67
79374;BME280;68844;53.128;17.958;2023-06-04T03:30:12;101726.97;;;6.21;68.33
79374;BME280;68844;53.128;17.958;2023-06-04T03:32:46;101729.52;;;6.31;68.09
79374;BME280;68844;53.128;17.958;2023-06-04T03:35:12;101725.23;;;6.42;68.45
79374;BME280;68844;53.128;17.958;2023-06-04T03:37:39;101727.90;;;6.55;68.40
79374;BME280;68844;53.128;17.958;2023-06-04T03:40:07;101728.33;;;6.80;68.07
79374;BME280;68844;53.128;17.958;2023-06-04T03:42:35;101724.86;;;7.23;67.91
79374;BME280;68844;53.128;17.958;2023-06-04T03:45:03;101721.45;;;7.87;66.51
79374;BME280;68844;53.128;17.958;2023-06-04T03:47:29;101716.77;;;8.52;65.47
79374;BME280;68844;53.128;17.958;2023-06-04T03:49:57;101715.00;;;9.19;64.28
79374;BME280;68844;53.128;17.958;2023-06-04T03:52:24;101714.42;;;9.81;62.49
79374;BME280;68844;53.128;17.958;2023-06-04T03:54:51;101713.09;;;10.50;61.14
79374;BME280;68844;53.128;17.958;2023-06-04T03:57:17;101715.27;;;11.38;59.25
79374;BME280;68844;53.128;17.958;2023-06-04T03:59:44;101709.30;;;12.14;57.35
79374;BME280;68844;53.128;17.958;2023-06-04T04:02:12;101708.54;;;12.75;55.16
79374;BME280;68844;53.128;17.958;2023-06-04T04:04:39;101709.06;;;13.60;53.46
79374;BME280;68844;53.128;17.958;2023-06-04T04:07:08;101707.40;;;14.67;51.53
79374;BME280;68844;53.128;17.958;2023-06-04T04:09:35;101703.76;;;15.79;46.67
79374;BME280;68844;53.128;17.958;2023-06-04T04:12:03;101700.19;;;16.52;46.84
79374;BME280;68844;53.128;17.958;2023-06-04T04:14:31;101703.89;;;17.25;46.14
79374;BME280;68844;53.128;17.958;2023-06-04T04:16:57;101701.89;;;18.16;42.88
79374;BME280;68844;53.128;17.958;2023-06-04T04:19:25;101698.83;;;19.06;44.51
79374;BME280;68844;53.128;17.958;2023-06-04T04:21:52;101693.82;;;19.58;42.55
79374;BME280;68844;53.128;17.958;2023-06-04T04:24:27;101690.08;;;20.17;39.21
79374;BME280;68844;53.128;17.958;2023-06-04T04:26:56;101692.67;;;20.71;36.12
79374;BME280;68844;53.128;17.958;2023-06-04T04:29:25;101692.33;;;21.19;36.08
79374;BME280;68844;53.128;17.958;2023-06-04T04:31:55;101690.09;;;21.79;36.64
79374;BME280;68844;53.128;17.958;2023-06-04T04:34:25;101690.58;;;22.46;37.41
79374;BME280;68844;53.128;17.958;2023-06-04T04:36:53;101692.73;;;23.01;35.72
79374;BME280;68844;53.128;17.958;2023-06-04T04:39:25;101691.25;;;23.55;31.76
79374;BME280;68844;53.128;17.958;2023-06-04T04:41:54;101689.27;;;24.19;31.25
79374;BME280;68844;53.128;17.958;2023-06-04T04:44:22;101687.55;;;24.63;31.06
79374;BME280;68844;53.128;17.958;2023-06-04T04:46:49;101686.48;;;24.82;30.72
79374;BME280;68844;53.128;17.958;2023-06-04T04:49:16;101683.71;;;25.03;28.36
79374;BME280;68844;53.128;17.958;2023-06-04T04:51:43;101683.27;;;25.17;26.86
79374;BME280;68844;53.128;17.958;2023-06-04T04:54:10;101686.05;;;25.14;28.45
79374;BME280;68844;53.128;17.958;2023-06-04T04:56:39;101688.34;;;25.59;29.57
79374;BME280;68844;53.128;17.958;2023-06-04T04:59:05;101688.00;;;26.03;26.87
79374;BME280;68844;53.128;17.958;2023-06-04T05:01:32;101689.87;;;26.09;26.30
79374;BME280;68844;53.128;17.958;2023-06-04T05:04:00;101693.02;;;26.10;26.29
79374;BME280;68844;53.128;17.958;2023-06-04T05:06:27;101689.98;;;26.01;25.33
79374;BME280;68844;53.128;17.958;2023-06-04T05:08:54;101696.53;;;26.36;25.36
79374;BME280;68844;53.128;17.958;2023-06-04T05:11:20;101693.89;;;26.79;25.58
79374;BME280;68844;53.128;17.958;2023-06-04T05:13:48;101695.56;;;26.80;24.43
79374;BME280;68844;53.128;17.958;2023-06-04T05:16:15;101694.35;;;26.99;24.44
79374;BME280;68844;53.128;17.958;2023-06-04T05:18:42;101695.41;;;27.62;23.43
79374;BME280;68844;53.128;17.958;2023-06-04T05:21:13;101700.70;;;27.96;24.46
79374;BME280;68844;53.128;17.958;2023-06-04T05:23:43;101698.43;;;28.09;22.92
79374;BME280;68844;53.128;17.958;2023-06-04T05:26:15;101698.17;;;28.04;22.92
79374;BME280;68844;53.128;17.958;2023-06-04T05:28:43;101697.58;;;28.52;22.35
79374;BME280;68844;53.128;17.958;2023-06-04T05:31:10;101696.05;;;29.60;22.31
79374;BME280;68844;53.128;17.958;2023-06-04T05:33:40;101698.25;;;30.09;21.27
79374;BME280;68844;53.128;17.958;2023-06-04T05:36:09;101698.02;;;30.61;19.81
79374;BME280;68844;53.128;17.958;2023-06-04T05:38:41;101700.97;;;30.10;19.37
79374;BME280;68844;53.128;17.958;2023-06-04T05:41:10;101705.70;;;30.61;19.99
79374;BME280;68844;53.128;17.958;2023-06-04T05:43:39;101706.94;;;30.95;18.87
79374;BME280;68844;53.128;17.958;2023-06-04T05:46:06;101712.77;;;31.04;19.56
79374;BME280;68844;53.128;17.958;2023-06-04T05:48:35;101708.73;;;31.68;18.53
79374;BME280;68844;53.128;17.958;2023-06-04T05:51:02;101709.60;;;32.48;17.44
79374;BME280;68844;53.128;17.958;2023-06-04T05:53:29;101712.15;;;32.43;17.66
79374;BME280;68844;53.128;17.958;2023-06-04T05:55:56;101714.89;;;33.07;16.61
79374;BME280;68844;53.128;17.958;2023-06-04T05:58:23;101716.09;;;33.57;16.81
79374;BME280;68844;53.128;17.958;2023-06-04T06:00:50;101716.66;;;33.90;15.58
79374;BME280;68844;53.128;17.958;2023-06-04T06:03:18;101717.55;;;33.62;14.92
79374;BME280;68844;53.128;17.958;2023-06-04T06:05:46;101711.88;;;33.84;15.08
79374;BME280;68844;53.128;17.958;2023-06-04T06:08:14;101711.69;;;34.45;14.07
79374;BME280;68844;53.128;17.958;2023-06-04T06:10:41;101715.41;;;34.67;13.57
79374;BME280;68844;53.128;17.958;2023-06-04T06:13:09;101718.77;;;34.24;12.88
79374;BME280;68844;53.128;17.958;2023-06-04T06:15:36;101719.14;;;33.74;13.42
79374;BME280;68844;53.128;17.958;2023-06-04T06:18:02;101720.98;;;33.89;13.72
79374;BME280;68844;53.128;17.958;2023-06-04T06:20:29;101723.73;;;34.89;13.27
79374;BME280;68844;53.128;17.958;2023-06-04T06:22:57;101723.61;;;35.92;12.01
79374;BME280;68844;53.128;17.958;2023-06-04T06:25:24;101729.17;;;35.49;12.14
79374;BME280;68844;53.128;17.958;2023-06-04T06:27:59;101724.95;;;36.21;11.30
79374;BME280;68844;53.128;17.958;2023-06-04T06:30:27;101721.58;;;36.80;11.31
79374;BME280;68844;53.128;17.958;2023-06-04T06:32:54;101721.63;;;37.54;11.30
79374;BME280;68844;53.128;17.958;2023-06-04T06:35:20;101722.37;;;37.95;10.05
79374;BME280;68844;53.128;17.958;2023-06-04T06:37:47;101723.29;;;38.74;9.88
79374;BME280;68844;53.128;17.958;2023-06-04T06:40:14;101726.97;;;38.88;9.22
79374;BME280;68844;53.128;17.958;2023-06-04T06:42:41;101730.16;;;38.58;9.47
79374;BME280;68844;53.128;17.958;2023-06-04T06:45:08;101730.20;;;37.95;9.65
79374;BME280;68844;53.128;17.958;2023-06-04T06:47:36;101731.27;;;38.35;9.89
79374;BME280;68844;53.128;17.958;2023-06-04T06:50:03;101728.50;;;38.99;9.13
79374;BME280;68844;53.128;17.958;2023-06-04T06:52:30;101725.33;;;38.62;9.14
79374;BME280;68844;53.128;17.958;2023-06-04T06:54:57;101721.97;;;38.59;9.23
79374;BME280;68844;53.128;17.958;2023-06-04T06:57:23;101725.61;;;38.72;8.83
79374;BME280;68844;53.128;17.958;2023-06-04T06:59:50;101724.66;;;38.86;9.51
79374;BME280;68844;53.128;17.958;2023-06-04T07:02:20;101723.83;;;38.77;9.04
79374;BME280;68844;53.128;17.958;2023-06-04T07:04:48;101725.11;;;38.23;8.79
79374;BME280;68844;53.128;17.958;2023-06-04T07:07:14;101718.89;;;37.40;9.11
79374;BME280;68844;53.128;17.958;2023-06-04T07:09:41;101722.64;;;36.14;9.64
79374;BME280;68844;53.128;17.958;2023-06-04T07:12:08;101718.96;;;35.63;10.14
79374;BME280;68844;53.128;17.958;2023-06-04T07:14:35;101719.71;;;36.15;10.07
79374;BME280;68844;53.128;17.958;2023-06-04T07:17:02;101723.05;;;35.37;10.33
79374;BME280;68844;53.128;17.958;2023-06-04T07:19:29;101722.93;;;35.62;11.05
79374;BME280;68844;53.128;17.958;2023-06-04T07:21:56;101718.29;;;36.15;10.42
79374;BME280;68844;53.128;17.958;2023-06-04T07:24:23;101716.24;;;36.90;9.87
79374;BME280;68844;53.128;17.958;2023-06-04T07:26:50;101713.71;;;36.86;9.92
79374;BME280;68844;53.128;17.958;2023-06-04T07:29:17;101718.39;;;37.16;9.71
79374;BME280;68844;53.128;17.958;2023-06-04T07:31:44;101719.80;;;37.05;9.76
79374;BME280;68844;53.128;17.958;2023-06-04T07:34:11;101716.20;;;37.25;9.70
79374;BME280;68844;53.128;17.958;2023-06-04T07:36:38;101717.06;;;37.95;9.64
79374;BME280;68844;53.128;17.958;2023-06-04T07:39:05;101717.29;;;38.12;8.86
79374;BME280;68844;53.128;17.958;2023-06-04T07:41:31;101718.91;;;37.72;9.11
79374;BME280;68844;53.128;17.958;2023-06-04T07:43:58;101714.45;;;37.12;9.15
79374;BME280;68844;53.128;17.958;2023-06-04T07:46:25;101715.59;;;36.67;9.91
79374;BME280;68844;53.128;17.958;2023-06-04T07:48:52;101720.20;;;36.19;9.28
79374;BME280;68844;53.128;17.958;2023-06-04T07:51:19;101717.23;;;35.88;9.80
79374;BME280;68844;53.128;17.958;2023-06-04T07:53:46;101716.72;;;36.09;9.95
79374;BME280;68844;53.128;17.958;2023-06-04T07:56:12;101712.58;;;36.37;9.41
79374;BME280;68844;53.128;17.958;2023-06-04T07:58:39;101716.84;;;35.88;9.66
79374;BME280;68844;53.128;17.958;2023-06-04T08:01:07;101712.26;;;35.63;10.18
79374;BME280;68844;53.128;17.958;2023-06-04T08:03:34;101707.50;;;35.99;10.01
79374;BME280;68844;53.128;17.958;2023-06-04T08:06:01;101710.36;;;35.37;9.58
79374;BME280;68844;53.128;17.958;2023-06-04T08:08:28;101704.98;;;35.77;9.58
79374;BME280;68844;53.128;17.958;2023-06-04T08:10:54;101708.15;;;35.38;9.76
79374;BME280;68844;53.128;17.958;2023-06-04T08:13:21;101699.26;;;35.81;10.04
79374;BME280;68844;53.128;17.958;2023-06-04T08:15:48;101704.20;;;35.44;9.82
79374;BME280;68844;53.128;17.958;2023-06-04T08:18:15;101708.18;;;35.36;9.94
79374;BME280;68844;53.128;17.958;2023-06-04T08:20:42;101702.45;;;35.13;10.27
79374;BME280;68844;53.128;17.958;2023-06-04T08:23:09;101703.70;;;35.22;10.64
79374;BME280;68844;53.128;17.958;2023-06-04T08:25:35;101698.98;;;36.06;10.14
79374;BME280;68844;53.128;17.958;2023-06-04T08:28:02;101697.77;;;35.43;9.95
79374;BME280;68844;53.128;17.958;2023-06-04T08:30:29;101700.46;;;35.28;10.11
79374;BME280;68844;53.128;17.958;2023-06-04T08:32:56;101697.31;;;35.10;10.57
79374;BME280;68844;53.128;17.958;2023-06-04T08:35:23;101695.32;;;35.07;10.26
79374;BME280;68844;53.128;17.958;2023-06-04T08:37:50;101696.00;;;34.28;10.83
79374;BME280;68844;53.128;17.958;2023-06-04T08:40:17;101697.41;;;34.17;10.58
79374;BME280;68844;53.128;17.958;2023-06-04T08:42:44;101696.33;;;33.32;11.02
79374;BME280;68844;53.128;17.958;2023-06-04T08:45:13;101695.93;;;33.84;11.15
79374;BME280;68844;53.128;17.958;2023-06-04T08:47:48;101689.27;;;34.49;11.66
79374;BME280;68844;53.128;17.958;2023-06-04T08:50:17;101689.04;;;35.50;10.40
79374;BME280;68844;53.128;17.958;2023-06-04T08:52:44;101689.70;;;36.21;10.06
79374;BME280;68844;53.128;17.958;2023-06-04T08:55:14;101690.83;;;36.81;9.17
79374;BME280;68844;53.128;17.958;2023-06-04T08:57:40;101696.13;;;35.31;9.49
79374;BME280;68844;53.128;17.958;2023-06-04T09:00:08;101690.66;;;34.91;10.14
79374;BME280;68844;53.128;17.958;2023-06-04T09:02:36;101696.52;;;34.83;9.98
79374;BME280;68844;53.128;17.958;2023-06-04T09:05:07;101690.75;;;35.26;10.57
79374;BME280;68844;53.128;17.958;2023-06-04T09:07:39;101688.02;;;35.92;9.53
79374;BME280;68844;53.128;17.958;2023-06-04T09:10:09;101688.95;;;35.52;9.57
79374;BME280;68844;53.128;17.958;2023-06-04T09:12:42;101688.20;;;35.65;10.47
79374;BME280;68844;53.128;17.958;2023-06-04T09:15:10;101687.36;;;35.47;9.87
79374;BME280;68844;53.128;17.958;2023-06-04T09:17:38;101688.55;;;34.68;10.83
79374;BME280;68844;53.128;17.958;2023-06-04T09:20:05;101692.30;;;34.30;10.48
79374;BME280;68844;53.128;17.958;2023-06-04T09:22:36;101690.35;;;34.86;10.37
79374;BME280;68844;53.128;17.958;2023-06-04T09:25:06;101686.44;;;35.05;10.38
79374;BME280;68844;53.128;17.958;2023-06-04T09:27:40;101684.84;;;35.13;10.17
79374;BME280;68844;53.128;17.958;2023-06-04T09:30:08;101682.03;;;34.93;10.28
79374;BME280;68844;53.128;17.958;2023-06-04T09:32:36;101679.38;;;35.06;10.30
79374;BME280;68844;53.128;17.958;2023-06-04T09:35:15;101675.13;;;35.60;10.11
79374;BME280;68844;53.128;17.958;2023-06-04T09:37:51;101677.11;;;35.50;10.57
79374;BME280;68844;53.128;17.958;2023-06-04T09:40:19;101675.44;;;35.00;10.35
79374;BME280;68844;53.128;17.958;2023-06-04T09:42:48;101675.42;;;35.31;10.04
79374;BME280;68844;53.128;17.958;2023-06-04T09:45:31;101674.19;;;34.56;10.25
79374;BME280;68844;53.128;17.958;2023-06-04T09:47:59;101672.23;;;34.44;10.37
79374;BME280;68844;53.128;17.958;2023-06-04T09:50:32;101668.63;;;34.79;10.48
79374;BME280;68844;53.128;17.958;2023-06-04T09:53:19;101665.95;;;34.26;10.57
79374;BME280;68844;53.128;17.958;2023-06-04T09:55:59;101664.17;;;34.37;10.50
79374;BME280;68844;53.128;17.958;2023-06-04T09:58:28;101663.17;;;33.81;10.89
79374;BME280;68844;53.128;17.958;2023-06-04T10:00:58;101660.42;;;33.49;11.44
79374;BME280;68844;53.128;17.958;2023-06-04T10:03:25;101660.27;;;33.82;11.09
79374;BME280;68844;53.128;17.958;2023-06-04T10:05:53;101655.71;;;32.96;11.28
79374;BME280;68844;53.128;17.958;2023-06-04T10:08:22;101654.57;;;32.68;11.70
79374;BME280;68844;53.128;17.958;2023-06-04T10:10:51;101653.33;;;32.41;11.55
79374;BME280;68844;53.128;17.958;2023-06-04T10:13:23;101656.86;;;30.88;12.58
79374;BME280;68844;53.128;17.958;2023-06-04T10:15:51;101655.70;;;31.20;12.77
79374;BME280;68844;53.128;17.958;2023-06-04T10:18:20;101650.34;;;31.77;12.68
79374;BME280;68844;53.128;17.958;2023-06-04T10:20:49;101651.48;;;32.56;12.05
79374;BME280;68844;53.128;17.958;2023-06-04T10:23:16;101657.15;;;31.67;12.48
79374;BME280;68844;53.128;17.958;2023-06-04T10:25:49;101650.59;;;31.36;12.69
79374;BME280;68844;53.128;17.958;2023-06-04T10:28:18;101656.81;;;30.74;12.75
79374;BME280;68844;53.128;17.958;2023-06-04T10:30:47;101655.76;;;30.83;13.04
79374;BME280;68844;53.128;17.958;2023-06-04T10:33:21;101656.27;;;31.29;12.99
79374;BME280;68844;53.128;17.958;2023-06-04T10:35:55;101656.64;;;31.83;12.49
79374;BME280;68844;53.128;17.958;2023-06-04T10:38:24;101657.52;;;31.61;12.99
79374;BME280;68844;53.128;17.958;2023-06-04T10:40:52;101653.96;;;32.24;12.44
79374;BME280;68844;53.128;17.958;2023-06-04T10:43:20;101653.36;;;32.19;12.43
79374;BME280;68844;53.128;17.958;2023-06-04T10:45:47;101650.00;;;32.38;12.27
79374;BME280;68844;53.128;17.958;2023-06-04T10:48:14;101651.41;;;32.13;12.61
79374;BME280;68844;53.128;17.958;2023-06-04T10:50:49;101651.35;;;31.29;12.84
79374;BME280;68844;53.128;17.958;2023-06-04T10:53:17;101654.18;;;30.95;13.59
79374;BME280;68844;53.128;17.958;2023-06-04T10:55:49;101652.00;;;30.87;13.49
79374;BME280;68844;53.128;17.958;2023-06-04T10:58:16;101646.89;;;30.42;13.75
79374;BME280;68844;53.128;17.958;2023-06-04T11:00:45;101648.85;;;30.17;14.19
79374;BME280;68844;53.128;17.958;2023-06-04T11:03:16;101643.61;;;30.73;13.94
79374;BME280;68844;53.128;17.958;2023-06-04T11:05:45;101645.72;;;31.21;14.05
79374;BME280;68844;53.128;17.958;2023-06-04T11:08:13;101642.69;;;31.30;13.03
79374;BME280;68844;53.128;17.958;2023-06-04T11:10:44;101643.40;;;31.20;13.46
79374;BME280;68844;53.128;17.958;2023-06-04T11:13:12;101644.00;;;30.94;13.55
79374;BME280;68844;53.128;17.958;2023-06-04T11:15:43;101644.73;;;31.09;14.15
79374;BME280;68844;53.128;17.958;2023-06-04T11:18:14;101647.70;;;31.44;13.61
79374;BME280;68844;53.128;17.958;2023-06-04T11:20:59;101643.30;;;31.05;12.90
79374;BME280;68844;53.128;17.958;2023-06-04T11:23:27;101639.51;;;31.00;13.60
79374;BME280;68844;53.128;17.958;2023-06-04T11:25:55;101640.10;;;30.90;14.07
79374;BME280;68844;53.128;17.958;2023-06-04T11:28:22;101642.47;;;30.37;14.45
79374;BME280;68844;53.128;17.958;2023-06-04T11:31:02;101639.02;;;29.59;14.29
79374;BME280;68844;53.128;17.958;2023-06-04T11:33:30;101633.24;;;29.03;15.05
79374;BME280;68844;53.128;17.958;2023-06-04T11:35:56;101635.05;;;29.41;14.62
79374;BME280;68844;53.128;17.958;2023-06-04T11:38:24;101634.97;;;29.06;14.90
79374;BME280;68844;53.128;17.958;2023-06-04T11:40:58;101632.54;;;28.92;15.15
79374;BME280;68844;53.128;17.958;2023-06-04T11:43:27;101634.72;;;28.95;16.11
79374;BME280;68844;53.128;17.958;2023-06-04T11:45:54;101628.75;;;29.35;15.47
79374;BME280;68844;53.128;17.958;2023-06-04T11:48:22;101620.37;;;29.56;14.57
79374;BME280;68844;53.128;17.958;2023-06-04T11:50:49;101614.98;;;29.30;14.73
79374;BME280;68844;53.128;17.958;2023-06-04T11:53:16;101619.83;;;29.15;15.25
79374;BME280;68844;53.128;17.958;2023-06-04T11:55:44;101623.89;;;29.13;15.11
79374;BME280;68844;53.128;17.958;2023-06-04T11:58:11;101623.17;;;28.93;15.29
79374;BME280;68844;53.128;17.958;2023-06-04T12:00:38;101619.33;;;28.63;15.67
79374;BME280;68844;53.128;17.958;2023-06-04T12:03:05;101618.52;;;28.82;15.67
79374;BME280;68844;53.128;17.958;2023-06-04T12:05:33;101615.80;;;28.73;15.08
79374;BME280;68844;53.128;17.958;2023-06-04T12:08:07;101616.88;;;28.57;15.13
79374;BME280;68844;53.128;17.958;2023-06-04T12:10:42;101617.33;;;28.17;15.36
79374;BME280;68844;53.128;17.958;2023-06-04T12:13:10;101612.29;;;27.84;15.75
79374;BME280;68844;53.128;17.958;2023-06-04T12:15:37;101617.00;;;27.62;15.83
79374;BME280;68844;53.128;17.958;2023-06-04T12:18:05;101616.02;;;27.43;15.61
79374;BME280;68844;53.128;17.958;2023-06-04T12:20:39;101620.83;;;27.29;16.76
79374;BME280;68844;53.128;17.958;2023-06-04T12:23:08;101622.83;;;27.51;15.97
79374;BME280;68844;53.128;17.958;2023-06-04T12:25:35;101624.27;;;27.45;15.83
79374;BME280;68844;53.128;17.958;2023-06-04T12:28:04;101615.13;;;27.39;15.81
79374;BME280;68844;53.128;17.958;2023-06-04T12:30:40;101612.08;;;27.78;15.66
79374;BME280;68844;53.128;17.958;2023-06-04T12:33:07;101608.79;;;28.02;15.53
79374;BME280;68844;53.128;17.958;2023-06-04T12:35:34;101605.46;;;28.19;15.49
79374;BME280;68844;53.128;17.958;2023-06-04T12:38:04;101609.59;;;28.35;15.35
79374;BME280;68844;53.128;17.958;2023-06-04T12:40:32;101612.27;;;28.21;15.26
79374;BME280;68844;53.128;17.958;2023-06-04T12:42:59;101613.70;;;28.11;15.32
79374;BME280;68844;53.128;17.958;2023-06-04T12:45:27;101609.35;;;27.92;15.01
79374;BME280;68844;53.128;17.958;2023-06-04T12:47:53;101608.75;;;27.79;15.38
79374;BME280;68844;53.128;17.958;2023-06-04T12:50:20;101609.77;;;27.75;15.63
79374;BME280;68844;53.128;17.958;2023-06-04T12:52:47;101614.20;;;27.97;15.51
79374;BME280;68844;53.128;17.958;2023-06-04T12:55:14;101610.66;;;28.27;15.14
79374;BME280;68844;53.128;17.958;2023-06-04T12:57:41;101609.82;;;28.43;15.23